sensor_id;sensor_type;location;lat;lon;timestamp;temperature;humidity
10530;DHT22;5313;48.834;9.228;2023-02-01T00:01:10;4.60;99.90
10530;DHT22;5313;48.834;9.228;2023-02-01T00:03:35;4.70;99.90
10530;DHT22;5313;48.834;9.228;2023-02-01T00:06:01;4.70;99.90
10530;DHT22;5313;48.834;9.228;2023-02-01T00:08:27;4.60;99.90
10530;DHT22;5313;48.834;9.228;2023-02-01T00:11:00;4.60;99.90
10530;DHT22;5313;48.834;9.228;2023-02-01T00:13:30;4.60;99.90
10530;DHT22;5313;48.834;9.228;2023-02-01T00:16:06;4.60;99.90
10530;DHT22;5313;48.834;9.228;2023-02-01T00:18:32;4.60;99.90
10530;DHT22;5313;48.834;9.228;2023-02-01T00:20:58;4.50;99.90
10530;DHT22;5313;48.834;9.228;2023-02-01T00:23:24;4.50;99.90
10530;DHT22;5313;48.834;9.228;2023-02-01T00:25:49;4.50;99.90
10530;DHT22;5313;48.834;9.228;2023-02-01T00:28:15;4.60;99.90
10530;DHT22;5313;48.834;9.228;2023-02-01T00:30:40;4.60;99.90
10530;DHT22;5313;48.834;9.228;2023-02-01T00:33:06;4.60;99.90
10530;DHT22;5313;48.834;9.228;2023-02-01T00:35:34;4.60;99.90
10530;DHT22;5313;48.834;9.228;2023-02-01T00:37:59;4.60;99.90
10530;DHT22;5313;48.834;9.228;2023-02-01T00:40:25;4.60;99.90
10530;DHT22;5313;48.834;9.228;2023-02-01T00:42:51;5.50;99.90
10530;DHT22;5313;48.834;9.228;2023-02-01T00:45:17;4.60;99.90
10530;DHT22;5313;48.834;9.228;2023-02-01T00:47:43;4.60;99.90
10530;DHT22;5313;48.834;9.228;2023-02-01T00:50:09;4.60;99.90
10530;DHT22;5313;48.834;9.228;2023-02-01T00:52:35;4.60;99.90
10530;DHT22;5313;48.834;9.228;2023-02-01T00:55:00;4.60;99.90
10530;DHT22;5313;48.834;9.228;2023-02-01T00:57:26;4.70;99.90
10530;DHT22;5313;48.834;9.228;2023-02-01T00:59:51;4.70;99.90
10530;DHT22;5313;48.834;9.228;2023-02-01T01:02:17;4.70;99.90
10530;DHT22;5313;48.834;9.228;2023-02-01T01:04:42;4.70;99.90
10530;DHT22;5313;48.834;9.228;2023-02-01T01:07:08;4.60;99.90
10530;DHT22;5313;48.834;9.228;2023-02-01T01:09:34;4.60;99.90
10530;DHT22;5313;48.834;9.228;2023-02-01T01:11:59;4.60;99.90
10530;DHT22;5313;48.834;9.228;2023-02-01T01:14:32;4.60;99.90
10530;DHT22;5313;48.834;9.228;2023-02-01T01:16:57;4.60;99.90
10530;DHT22;5313;48.834;9.228;2023-02-01T01:19:23;4.60;99.90
10530;DHT22;5313;48.834;9.228;2023-02-01T01:21:48;4.50;99.90
10530;DHT22;5313;48.834;9.228;2023-02-01T01:24:14;4.60;99.90
10530;DHT22;5313;48.834;9.228;2023-02-01T01:26:40;4.60;99.90
10530;DHT22;5313;48.834;9.228;2023-02-01T01:29:05;5.60;99.90
10530;DHT22;5313;48.834;9.228;2023-02-01T01:31:31;4.60;99.90
10530;DHT22;5313;48.834;9.228;2023-02-01T01:33:58;4.60;99.90
10530;DHT22;5313;48.834;9.228;2023-02-01T01:36:25;4.70;99.90
10530;DHT22;5313;48.834;9.228;2023-02-01T01:38:51;4.70;99.90
10530;DHT22;5313;48.834;9.228;2023-02-01T01:41:19;4.70;99.90
10530;DHT22;5313;48.834;9.228;2023-02-01T01:43:55;4.70;99.90
10530;DHT22;5313;48.834;9.228;2023-02-01T01:46:27;4.70;99.90
10530;DHT22;5313;48.834;9.228;2023-02-01T01:49:31;4.70;99.90
10530;DHT22;5313;48.834;9.228;2023-02-01T01:52:01;4.70;99.90
10530;DHT22;5313;48.834;9.228;2023-02-01T01:54:30;4.80;99.90
10530;DHT22;5313;48.834;9.228;2023-02-01T01:57:01;4.70;99.90
10530;DHT22;5313;48.834;9.228;2023-02-01T01:59:31;4.80;99.90
10530;DHT22;5313;48.834;9.228;2023-02-01T02:01:57;4.80;99.90
10530;DHT22;5313;48.834;9.228;2023-02-01T02:04:23;4.90;99.90
10530;DHT22;5313;48.834;9.228;2023-02-01T02:07:11;4.90;99.90
10530;DHT22;5313;48.834;9.228;2023-02-01T02:09:38;4.80;99.90
10530;DHT22;5313;48.834;9.228;2023-02-01T02:12:04;4.80;99.90
10530;DHT22;5313;48.834;9.228;2023-02-01T02:14:30;4.80;99.90
10530;DHT22;5313;48.834;9.228;2023-02-01T02:17:23;4.80;99.90
10530;DHT22;5313;48.834;9.228;2023-02-01T02:34:37;4.70;99.90
10530;DHT22;5313;48.834;9.228;2023-02-01T02:37:16;4.70;99.90
10530;DHT22;5313;48.834;9.228;2023-02-01T02:39:52;4.70;99.90
10530;DHT22;5313;48.834;9.228;2023-02-01T02:45:27;4.70;99.90
10530;DHT22;5313;48.834;9.228;2023-02-01T02:48:43;4.70;99.90
10530;DHT22;5313;48.834;9.228;2023-02-01T02:51:15;4.80;99.90
10530;DHT22;5313;48.834;9.228;2023-02-01T02:54:12;4.80;99.90
10530;DHT22;5313;48.834;9.228;2023-02-01T02:56:58;4.80;99.90
10530;DHT22;5313;48.834;9.228;2023-02-01T02:59:44;4.80;99.90
10530;DHT22;5313;48.834;9.228;2023-02-01T03:02:30;4.80;99.90
10530;DHT22;5313;48.834;9.228;2023-02-01T03:05:15;4.80;99.90
10530;DHT22;5313;48.834;9.228;2023-02-01T03:10:36;4.80;99.90
10530;DHT22;5313;48.834;9.228;2023-02-01T03:15:52;4.90;99.90
10530;DHT22;5313;48.834;9.228;2023-02-01T03:18:41;4.90;99.90
10530;DHT22;5313;48.834;9.228;2023-02-01T03:21:16;4.80;99.90
10530;DHT22;5313;48.834;9.228;2023-02-01T03:23:44;4.90;99.90
10530;DHT22;5313;48.834;9.228;2023-02-01T03:26:13;4.90;99.90
10530;DHT22;5313;48.834;9.228;2023-02-01T03:28:49;4.80;99.90
10530;DHT22;5313;48.834;9.228;2023-02-01T03:31:18;4.80;99.90
10530;DHT22;5313;48.834;9.228;2023-02-01T03:33:43;4.80;99.90
10530;DHT22;5313;48.834;9.228;2023-02-01T03:36:26;4.80;99.90
10530;DHT22;5313;48.834;9.228;2023-02-01T03:39:15;4.80;99.90
10530;DHT22;5313;48.834;9.228;2023-02-01T03:41:45;4.80;99.90
10530;DHT22;5313;48.834;9.228;2023-02-01T03:44:21;4.80;99.90
10530;DHT22;5313;48.834;9.228;2023-02-01T03:47:02;4.80;99.90
10530;DHT22;5313;48.834;9.228;2023-02-01T03:49:29;4.80;99.90
10530;DHT22;5313;48.834;9.228;2023-02-01T03:51:58;4.70;99.90
10530;DHT22;5313;48.834;9.228;2023-02-01T03:54:26;4.70;99.90
10530;DHT22;5313;48.834;9.228;2023-02-01T03:56:54;4.80;99.90
10530;DHT22;5313;48.834;9.228;2023-02-01T03:59:21;4.80;99.90
10530;DHT22;5313;48.834;9.228;2023-02-01T04:01:46;4.80;99.90
10530;DHT22;5313;48.834;9.228;2023-02-01T04:04:12;4.80;99.90
10530;DHT22;5313;48.834;9.228;2023-02-01T04:06:45;4.80;99.90
10530;DHT22;5313;48.834;9.228;2023-02-01T04:09:11;4.80;99.90
10530;DHT22;5313;48.834;9.228;2023-02-01T04:11:36;4.80;99.90
10530;DHT22;5313;48.834;9.228;2023-02-01T04:14:02;4.80;99.90
10530;DHT22;5313;48.834;9.228;2023-02-01T04:16:30;4.80;99.90
10530;DHT22;5313;48.834;9.228;2023-02-01T04:18:55;4.80;99.90
10530;DHT22;5313;48.834;9.228;2023-02-01T04:21:22;4.70;99.90
10530;DHT22;5313;48.834;9.228;2023-02-01T04:23:48;4.80;99.90
10530;DHT22;5313;48.834;9.228;2023-02-01T04:26:13;4.80;99.90
10530;DHT22;5313;48.834;9.228;2023-02-01T04:28:39;4.70;99.90
10530;DHT22;5313;48.834;9.228;2023-02-01T04:31:11;4.70;99.90
10530;DHT22;5313;48.834;9.228;2023-02-01T04:33:37;4.70;99.90
10530;DHT22;5313;48.834;9.228;2023-02-01T04:36:02;4.70;99.90
10530;DHT22;5313;48.834;9.228;2023-02-01T04:38:28;4.70;99.90
10530;DHT22;5313;48.834;9.228;2023-02-01T04:40:54;4.70;99.90
10530;DHT22;5313;48.834;9.228;2023-02-01T04:43:20;4.70;99.90
10530;DHT22;5313;48.834;9.228;2023-02-01T04:45:49;8.90;99.90
10530;DHT22;5313;48.834;9.228;2023-02-01T04:48:16;4.70;99.90
10530;DHT22;5313;48.834;9.228;2023-02-01T04:50:43;4.70;99.90
10530;DHT22;5313;48.834;9.228;2023-02-01T04:53:10;4.70;99.90
10530;DHT22;5313;48.834;9.228;2023-02-01T04:55:35;4.80;99.90
10530;DHT22;5313;48.834;9.228;2023-02-01T04:58:01;4.90;99.90
10530;DHT22;5313;48.834;9.228;2023-02-01T05:00:26;5.00;99.90
10530;DHT22;5313;48.834;9.228;2023-02-01T05:02:52;5.00;99.90
10530;DHT22;5313;48.834;9.228;2023-02-01T05:05:17;4.90;99.90
10530;DHT22;5313;48.834;9.228;2023-02-01T05:07:43;4.90;99.90
10530;DHT22;5313;48.834;9.228;2023-02-01T05:10:09;4.80;99.90
10530;DHT22;5313;48.834;9.228;2023-02-01T05:12:34;4.80;99.90
10530;DHT22;5313;48.834;9.228;2023-02-01T05:15:18;4.80;99.90
10530;DHT22;5313;48.834;9.228;2023-02-01T05:17:44;4.80;99.90
10530;DHT22;5313;48.834;9.228;2023-02-01T05:20:10;4.90;99.90
10530;DHT22;5313;48.834;9.228;2023-02-01T05:22:35;5.00;99.90
10530;DHT22;5313;48.834;9.228;2023-02-01T05:25:01;5.00;99.90
10530;DHT22;5313;48.834;9.228;2023-02-01T05:27:29;5.10;99.90
10530;DHT22;5313;48.834;9.228;2023-02-01T05:29:55;5.10;99.90
10530;DHT22;5313;48.834;9.228;2023-02-01T05:32:20;5.20;99.90
10530;DHT22;5313;48.834;9.228;2023-02-01T05:34:46;5.20;99.90
10530;DHT22;5313;48.834;9.228;2023-02-01T05:37:11;5.10;99.90
10530;DHT22;5313;48.834;9.228;2023-02-01T05:39:37;5.10;99.90
10530;DHT22;5313;48.834;9.228;2023-02-01T05:42:02;5.10;99.90
10530;DHT22;5313;48.834;9.228;2023-02-01T05:44:28;5.10;99.90
10530;DHT22;5313;48.834;9.228;2023-02-01T05:46:53;5.20;99.90
10530;DHT22;5313;48.834;9.228;2023-02-01T05:49:19;5.20;99.90
10530;DHT22;5313;48.834;9.228;2023-02-01T05:51:45;5.20;99.90
10530;DHT22;5313;48.834;9.228;2023-02-01T05:54:10;5.20;99.90
10530;DHT22;5313;48.834;9.228;2023-02-01T05:56:36;5.20;99.90
10530;DHT22;5313;48.834;9.228;2023-02-01T05:59:01;5.10;99.90
10530;DHT22;5313;48.834;9.228;2023-02-01T06:01:27;5.20;99.90
10530;DHT22;5313;48.834;9.228;2023-02-01T06:03:52;5.10;99.90
10530;DHT22;5313;48.834;9.228;2023-02-01T06:06:18;5.10;99.90
10530;DHT22;5313;48.834;9.228;2023-02-01T06:08:45;5.10;99.90
10530;DHT22;5313;48.834;9.228;2023-02-01T06:11:10;5.20;99.90
10530;DHT22;5313;48.834;9.228;2023-02-01T06:13:36;5.20;99.90
10530;DHT22;5313;48.834;9.228;2023-02-01T06:16:04;5.10;99.90
10530;DHT22;5313;48.834;9.228;2023-02-01T06:18:32;5.10;99.90
10530;DHT22;5313;48.834;9.228;2023-02-01T06:20:59;5.10;99.90
10530;DHT22;5313;48.834;9.228;2023-02-01T06:23:26;5.10;99.90
10530;DHT22;5313;48.834;9.228;2023-02-01T06:25:53;5.10;99.90
10530;DHT22;5313;48.834;9.228;2023-02-01T06:28:23;5.10;99.90
10530;DHT22;5313;48.834;9.228;2023-02-01T06:30:49;5.10;99.90
10530;DHT22;5313;48.834;9.228;2023-02-01T06:33:15;5.10;99.90
10530;DHT22;5313;48.834;9.228;2023-02-01T06:35:43;5.10;99.90
10530;DHT22;5313;48.834;9.228;2023-02-01T06:38:10;5.10;99.90
10530;DHT22;5313;48.834;9.228;2023-02-01T06:40:36;5.10;99.90
10530;DHT22;5313;48.834;9.228;2023-02-01T06:43:02;5.10;99.90
10530;DHT22;5313;48.834;9.228;2023-02-01T06:45:27;5.10;99.90
10530;DHT22;5313;48.834;9.228;2023-02-01T06:47:53;5.20;99.90
10530;DHT22;5313;48.834;9.228;2023-02-01T06:50:18;5.20;99.90
10530;DHT22;5313;48.834;9.228;2023-02-01T06:52:44;5.30;99.90
10530;DHT22;5313;48.834;9.228;2023-02-01T06:55:09;5.30;99.90
10530;DHT22;5313;48.834;9.228;2023-02-01T06:57:35;5.40;99.90
10530;DHT22;5313;48.834;9.228;2023-02-01T07:00:02;5.40;99.90
10530;DHT22;5313;48.834;9.228;2023-02-01T07:02:28;5.50;99.90
10530;DHT22;5313;48.834;9.228;2023-02-01T07:04:53;5.50;99.90
10530;DHT22;5313;48.834;9.228;2023-02-01T07:07:19;5.60;99.90
10530;DHT22;5313;48.834;9.228;2023-02-01T07:09:45;5.70;99.90
10530;DHT22;5313;48.834;9.228;2023-02-01T07:12:11;5.80;99.90
10530;DHT22;5313;48.834;9.228;2023-02-01T07:14:37;5.80;99.90
10530;DHT22;5313;48.834;9.228;2023-02-01T07:17:02;5.90;99.90
10530;DHT22;5313;48.834;9.228;2023-02-01T07:19:27;6.00;99.90
10530;DHT22;5313;48.834;9.228;2023-02-01T07:21:53;6.00;99.90
10530;DHT22;5313;48.834;9.228;2023-02-01T07:24:18;6.10;99.90
10530;DHT22;5313;48.834;9.228;2023-02-01T07:26:44;6.10;99.90
10530;DHT22;5313;48.834;9.228;2023-02-01T07:29:09;6.10;99.90
10530;DHT22;5313;48.834;9.228;2023-02-01T07:31:35;6.20;99.90
10530;DHT22;5313;48.834;9.228;2023-02-01T07:34:00;6.20;99.90
10530;DHT22;5313;48.834;9.228;2023-02-01T07:36:27;6.00;99.90
10530;DHT22;5313;48.834;9.228;2023-02-01T07:38:53;6.20;99.90
10530;DHT22;5313;48.834;9.228;2023-02-01T07:41:19;6.20;99.90
10530;DHT22;5313;48.834;9.228;2023-02-01T07:43:45;6.30;99.90
10530;DHT22;5313;48.834;9.228;2023-02-01T07:46:11;6.30;99.90
10530;DHT22;5313;48.834;9.228;2023-02-01T07:48:37;6.20;99.90
10530;DHT22;5313;48.834;9.228;2023-02-01T07:51:10;6.30;99.90
10530;DHT22;5313;48.834;9.228;2023-02-01T07:53:36;6.30;99.90
10530;DHT22;5313;48.834;9.228;2023-02-01T07:56:03;6.30;99.90
10530;DHT22;5313;48.834;9.228;2023-02-01T07:58:29;6.40;99.90
10530;DHT22;5313;48.834;9.228;2023-02-01T08:00:55;6.30;99.90
10530;DHT22;5313;48.834;9.228;2023-02-01T08:03:39;6.40;99.90
10530;DHT22;5313;48.834;9.228;2023-02-01T08:06:05;6.40;99.90
10530;DHT22;5313;48.834;9.228;2023-02-01T08:08:32;6.40;99.90
10530;DHT22;5313;48.834;9.228;2023-02-01T08:10:58;6.40;99.90
10530;DHT22;5313;48.834;9.228;2023-02-01T08:13:24;6.40;99.90
10530;DHT22;5313;48.834;9.228;2023-02-01T08:15:49;6.40;99.90
10530;DHT22;5313;48.834;9.228;2023-02-01T08:18:15;6.50;99.90
10530;DHT22;5313;48.834;9.228;2023-02-01T08:20:43;6.50;99.90
10530;DHT22;5313;48.834;9.228;2023-02-01T08:23:11;6.50;99.90
10530;DHT22;5313;48.834;9.228;2023-02-01T08:25:37;6.60;99.90
10530;DHT22;5313;48.834;9.228;2023-02-01T08:28:04;6.60;99.90
10530;DHT22;5313;48.834;9.228;2023-02-01T08:30:30;6.60;99.90
10530;DHT22;5313;48.834;9.228;2023-02-01T08:32:55;6.70;99.90
10530;DHT22;5313;48.834;9.228;2023-02-01T08:35:21;6.70;99.90
10530;DHT22;5313;48.834;9.228;2023-02-01T08:37:46;6.70;99.90
10530;DHT22;5313;48.834;9.228;2023-02-01T08:40:12;6.80;99.90
10530;DHT22;5313;48.834;9.228;2023-02-01T08:42:39;6.80;99.90
10530;DHT22;5313;48.834;9.228;2023-02-01T08:45:28;6.90;99.90
10530;DHT22;5313;48.834;9.228;2023-02-01T08:47:55;6.90;99.90
10530;DHT22;5313;48.834;9.228;2023-02-01T08:50:22;6.90;99.90
10530;DHT22;5313;48.834;9.228;2023-02-01T08:52:47;7.00;99.90
10530;DHT22;5313;48.834;9.228;2023-02-01T08:55:14;6.90;99.90
10530;DHT22;5313;48.834;9.228;2023-02-01T08:57:40;6.90;99.90
10530;DHT22;5313;48.834;9.228;2023-02-01T09:00:08;6.90;99.90
10530;DHT22;5313;48.834;9.228;2023-02-01T09:02:35;7.00;99.90
10530;DHT22;5313;48.834;9.228;2023-02-01T09:05:00;7.00;99.90
10530;DHT22;5313;48.834;9.228;2023-02-01T09:07:26;6.90;99.90
10530;DHT22;5313;48.834;9.228;2023-02-01T09:09:51;6.90;99.90
10530;DHT22;5313;48.834;9.228;2023-02-01T09:12:20;6.80;99.90
10530;DHT22;5313;48.834;9.228;2023-02-01T09:14:45;6.80;99.90
10530;DHT22;5313;48.834;9.228;2023-02-01T09:17:10;6.80;99.90
10530;DHT22;5313;48.834;9.228;2023-02-01T09:19:38;6.80;99.90
10530;DHT22;5313;48.834;9.228;2023-02-01T09:22:04;6.80;99.90
10530;DHT22;5313;48.834;9.228;2023-02-01T09:24:30;6.80;99.90
10530;DHT22;5313;48.834;9.228;2023-02-01T09:26:55;6.60;99.90
10530;DHT22;5313;48.834;9.228;2023-02-01T09:29:21;6.40;99.90
10530;DHT22;5313;48.834;9.228;2023-02-01T09:31:46;6.50;99.90
10530;DHT22;5313;48.834;9.228;2023-02-01T09:34:12;6.60;99.90
10530;DHT22;5313;48.834;9.228;2023-02-01T09:36:37;6.70;99.90
10530;DHT22;5313;48.834;9.228;2023-02-01T09:39:03;6.80;99.90
10530;DHT22;5313;48.834;9.228;2023-02-01T09:46:47;6.90;99.90
10530;DHT22;5313;48.834;9.228;2023-02-01T09:49:21;6.90;99.90
10530;DHT22;5313;48.834;9.228;2023-02-01T09:51:49;6.90;99.90
10530;DHT22;5313;48.834;9.228;2023-02-01T09:54:25;6.90;99.90
10530;DHT22;5313;48.834;9.228;2023-02-01T09:57:07;7.00;99.90
10530;DHT22;5313;48.834;9.228;2023-02-01T10:01:59;7.00;99.90
10530;DHT22;5313;48.834;9.228;2023-02-01T10:04:26;7.00;99.90
10530;DHT22;5313;48.834;9.228;2023-02-01T10:07:13;7.10;99.90
10530;DHT22;5313;48.834;9.228;2023-02-01T10:10:02;7.10;99.90
10530;DHT22;5313;48.834;9.228;2023-02-01T10:15:46;7.10;99.90
10530;DHT22;5313;48.834;9.228;2023-02-01T10:18:39;7.10;99.90
10530;DHT22;5313;48.834;9.228;2023-02-01T10:21:34;7.10;99.90
10530;DHT22;5313;48.834;9.228;2023-02-01T10:24:32;7.20;99.90
10530;DHT22;5313;48.834;9.228;2023-02-01T10:27:25;7.20;99.90
10530;DHT22;5313;48.834;9.228;2023-02-01T10:29:58;7.30;99.90
10530;DHT22;5313;48.834;9.228;2023-02-01T10:32:34;7.10;99.90
10530;DHT22;5313;48.834;9.228;2023-02-01T10:35:12;7.40;99.90
10530;DHT22;5313;48.834;9.228;2023-02-01T10:37:41;7.40;99.90
10530;DHT22;5313;48.834;9.228;2023-02-01T10:40:22;7.40;99.90
10530;DHT22;5313;48.834;9.228;2023-02-01T10:42:59;7.30;99.90
10530;DHT22;5313;48.834;9.228;2023-02-01T10:45:28;7.20;99.90
10530;DHT22;5313;48.834;9.228;2023-02-01T10:47:55;7.20;99.90
10530;DHT22;5313;48.834;9.228;2023-02-01T10:53:06;7.30;99.90
10530;DHT22;5313;48.834;9.228;2023-02-01T10:58:18;7.30;99.90
10530;DHT22;5313;48.834;9.228;2023-02-01T11:00:55;7.30;99.90
10530;DHT22;5313;48.834;9.228;2023-02-01T11:05:56;7.30;99.90
10530;DHT22;5313;48.834;9.228;2023-02-01T11:08:22;7.30;99.90
10530;DHT22;5313;48.834;9.228;2023-02-01T11:11:00;7.30;99.90
10530;DHT22;5313;48.834;9.228;2023-02-01T11:13:37;7.30;99.90
10530;DHT22;5313;48.834;9.228;2023-02-01T11:16:04;7.30;99.90
10530;DHT22;5313;48.834;9.228;2023-02-01T11:18:35;7.30;99.90
10530;DHT22;5313;48.834;9.228;2023-02-01T11:21:01;7.20;99.90
10530;DHT22;5313;48.834;9.228;2023-02-01T11:23:29;7.20;99.90
10530;DHT22;5313;48.834;9.228;2023-02-01T11:25:58;7.20;99.90
10530;DHT22;5313;48.834;9.228;2023-02-01T11:28:26;7.20;99.90
10530;DHT22;5313;48.834;9.228;2023-02-01T11:30:56;7.20;99.90
10530;DHT22;5313;48.834;9.228;2023-02-01T11:33:30;7.20;99.90
10530;DHT22;5313;48.834;9.228;2023-02-01T11:35:59;7.20;99.90
10530;DHT22;5313;48.834;9.228;2023-02-01T11:38:28;7.20;99.90
10530;DHT22;5313;48.834;9.228;2023-02-01T11:40:55;7.20;99.90
10530;DHT22;5313;48.834;9.228;2023-02-01T11:43:35;7.20;99.90
10530;DHT22;5313;48.834;9.228;2023-02-01T11:46:02;7.30;99.90
10530;DHT22;5313;48.834;9.228;2023-02-01T11:48:31;7.30;99.90
10530;DHT22;5313;48.834;9.228;2023-02-01T11:56:15;7.30;99.90
10530;DHT22;5313;48.834;9.228;2023-02-01T11:59:03;7.30;99.90
10530;DHT22;5313;48.834;9.228;2023-02-01T12:04:43;7.30;99.90
10530;DHT22;5313;48.834;9.228;2023-02-01T12:10:00;7.40;99.90
10530;DHT22;5313;48.834;9.228;2023-02-01T12:12:43;7.40;99.90
10530;DHT22;5313;48.834;9.228;2023-02-01T12:18:30;7.30;99.90
10530;DHT22;5313;48.834;9.228;2023-02-01T12:21:02;7.30;99.90
10530;DHT22;5313;48.834;9.228;2023-02-01T12:23:55;7.90;99.90
10530;DHT22;5313;48.834;9.228;2023-02-01T12:26:50;7.10;99.90
10530;DHT22;5313;48.834;9.228;2023-02-01T12:29:47;7.10;99.90
10530;DHT22;5313;48.834;9.228;2023-02-01T12:41:09;7.20;99.90
10530;DHT22;5313;48.834;9.228;2023-02-01T12:44:02;7.20;99.90
10530;DHT22;5313;48.834;9.228;2023-02-01T12:46:43;7.20;99.90
10530;DHT22;5313;48.834;9.228;2023-02-01T12:51:46;7.10;99.90
10530;DHT22;5313;48.834;9.228;2023-02-01T12:54:20;6.90;99.90
10530;DHT22;5313;48.834;9.228;2023-02-01T12:59:35;6.90;99.90
10530;DHT22;5313;48.834;9.228;2023-02-01T13:02:27;6.90;99.90
10530;DHT22;5313;48.834;9.228;2023-02-01T13:05:13;7.30;99.90
10530;DHT22;5313;48.834;9.228;2023-02-01T13:07:53;6.90;99.90
10530;DHT22;5313;48.834;9.228;2023-02-01T13:10:46;6.80;99.90
10530;DHT22;5313;48.834;9.228;2023-02-01T13:13:19;6.70;99.90
10530;DHT22;5313;48.834;9.228;2023-02-01T13:15:55;6.70;99.90
10530;DHT22;5313;48.834;9.228;2023-02-01T13:18:24;6.70;99.90
10530;DHT22;5313;48.834;9.228;2023-02-01T13:21:08;6.60;99.90
10530;DHT22;5313;48.834;9.228;2023-02-01T13:23:39;6.70;99.90
10530;DHT22;5313;48.834;9.228;2023-02-01T13:26:05;6.80;99.90
10530;DHT22;5313;48.834;9.228;2023-02-01T13:28:53;6.90;99.90
10530;DHT22;5313;48.834;9.228;2023-02-01T13:31:38;6.90;99.90
10530;DHT22;5313;48.834;9.228;2023-02-01T13:37:28;6.90;99.90
10530;DHT22;5313;48.834;9.228;2023-02-01T13:45:23;6.90;99.90
10530;DHT22;5313;48.834;9.228;2023-02-01T13:47:52;6.90;99.90
10530;DHT22;5313;48.834;9.228;2023-02-01T13:50:26;6.90;99.90
10530;DHT22;5313;48.834;9.228;2023-02-01T13:55:39;6.90;99.90
10530;DHT22;5313;48.834;9.228;2023-02-01T13:58:29;7.00;99.90
10530;DHT22;5313;48.834;9.228;2023-02-01T14:01:31;7.00;99.90
10530;DHT22;5313;48.834;9.228;2023-02-01T14:03:59;7.00;99.90
10530;DHT22;5313;48.834;9.228;2023-02-01T14:09:14;6.90;99.90
10530;DHT22;5313;48.834;9.228;2023-02-01T14:11:52;6.80;99.90
10530;DHT22;5313;48.834;9.228;2023-02-01T14:21:56;6.90;99.90
10530;DHT22;5313;48.834;9.228;2023-02-01T14:24:29;7.00;99.90
10530;DHT22;5313;48.834;9.228;2023-02-01T14:29:41;7.00;99.90
10530;DHT22;5313;48.834;9.228;2023-02-01T14:32:17;7.10;99.90
10530;DHT22;5313;48.834;9.228;2023-02-01T14:50:47;7.10;99.90
10530;DHT22;5313;48.834;9.228;2023-02-01T14:53:15;7.10;99.90
10530;DHT22;5313;48.834;9.228;2023-02-01T14:55:56;7.00;99.90
10530;DHT22;5313;48.834;9.228;2023-02-01T14:58:51;7.00;99.90
10530;DHT22;5313;48.834;9.228;2023-02-01T15:01:21;7.00;99.90
10530;DHT22;5313;48.834;9.228;2023-02-01T15:06:45;6.90;99.90
10530;DHT22;5313;48.834;9.228;2023-02-01T15:09:14;6.90;99.90
10530;DHT22;5313;48.834;9.228;2023-02-01T15:14:46;6.90;99.90
10530;DHT22;5313;48.834;9.228;2023-02-01T15:17:26;6.80;99.90
10530;DHT22;5313;48.834;9.228;2023-02-01T15:19:57;6.90;99.90
10530;DHT22;5313;48.834;9.228;2023-02-01T15:22:23;6.90;99.90
10530;DHT22;5313;48.834;9.228;2023-02-01T15:24:53;6.90;99.90
10530;DHT22;5313;48.834;9.228;2023-02-01T15:27:19;6.90;99.90
10530;DHT22;5313;48.834;9.228;2023-02-01T15:29:44;6.90;99.90
10530;DHT22;5313;48.834;9.228;2023-02-01T15:34:53;6.90;99.90
10530;DHT22;5313;48.834;9.228;2023-02-01T15:37:20;6.90;99.90
10530;DHT22;5313;48.834;9.228;2023-02-01T15:40:26;6.90;99.90
10530;DHT22;5313;48.834;9.228;2023-02-01T15:42:56;6.90;99.90
10530;DHT22;5313;48.834;9.228;2023-02-01T15:45:27;6.80;99.90
10530;DHT22;5313;48.834;9.228;2023-02-01T15:47:55;6.80;99.90
10530;DHT22;5313;48.834;9.228;2023-02-01T15:50:21;6.80;99.90
10530;DHT22;5313;48.834;9.228;2023-02-01T15:52:49;6.90;99.90
10530;DHT22;5313;48.834;9.228;2023-02-01T15:57:57;6.90;99.90
10530;DHT22;5313;48.834;9.228;2023-02-01T16:00:25;6.90;99.90
10530;DHT22;5313;48.834;9.228;2023-02-01T16:02:57;6.90;99.90
10530;DHT22;5313;48.834;9.228;2023-02-01T16:10:39;6.90;99.90
10530;DHT22;5313;48.834;9.228;2023-02-01T16:13:05;6.90;99.90
10530;DHT22;5313;48.834;9.228;2023-02-01T16:15:31;6.90;99.90
10530;DHT22;5313;48.834;9.228;2023-02-01T16:17:56;6.90;99.90
10530;DHT22;5313;48.834;9.228;2023-02-01T16:20:22;6.90;99.90
10530;DHT22;5313;48.834;9.228;2023-02-01T16:22:47;6.90;99.90
10530;DHT22;5313;48.834;9.228;2023-02-01T16:25:13;6.90;99.90
10530;DHT22;5313;48.834;9.228;2023-02-01T16:27:38;6.90;99.90
10530;DHT22;5313;48.834;9.228;2023-02-01T16:30:04;6.90;99.90
10530;DHT22;5313;48.834;9.228;2023-02-01T16:32:30;6.90;99.90
10530;DHT22;5313;48.834;9.228;2023-02-01T16:34:56;6.90;99.90
10530;DHT22;5313;48.834;9.228;2023-02-01T16:37:24;6.90;99.90
10530;DHT22;5313;48.834;9.228;2023-02-01T16:39:50;6.90;99.90
10530;DHT22;5313;48.834;9.228;2023-02-01T16:42:16;6.90;99.90
10530;DHT22;5313;48.834;9.228;2023-02-01T16:44:42;6.90;99.90
10530;DHT22;5313;48.834;9.228;2023-02-01T16:47:13;6.90;99.90
10530;DHT22;5313;48.834;9.228;2023-02-01T16:49:41;6.90;99.90
10530;DHT22;5313;48.834;9.228;2023-02-01T16:52:16;6.90;99.90
10530;DHT22;5313;48.834;9.228;2023-02-01T16:54:42;6.90;99.90
10530;DHT22;5313;48.834;9.228;2023-02-01T16:57:16;6.90;99.90
10530;DHT22;5313;48.834;9.228;2023-02-01T16:59:42;6.80;99.90
10530;DHT22;5313;48.834;9.228;2023-02-01T17:02:14;6.90;99.90
10530;DHT22;5313;48.834;9.228;2023-02-01T17:04:41;6.80;99.90
10530;DHT22;5313;48.834;9.228;2023-02-01T17:07:10;6.80;99.90
10530;DHT22;5313;48.834;9.228;2023-02-01T17:09:36;6.80;99.90
10530;DHT22;5313;48.834;9.228;2023-02-01T17:12:03;6.80;99.90
10530;DHT22;5313;48.834;9.228;2023-02-01T17:14:31;6.80;99.90
10530;DHT22;5313;48.834;9.228;2023-02-01T17:16:58;6.80;99.90
10530;DHT22;5313;48.834;9.228;2023-02-01T17:19:24;6.80;99.90
10530;DHT22;5313;48.834;9.228;2023-02-01T17:21:51;6.80;99.90
10530;DHT22;5313;48.834;9.228;2023-02-01T17:24:22;6.80;99.90
10530;DHT22;5313;48.834;9.228;2023-02-01T17:26:48;6.80;99.90
10530;DHT22;5313;48.834;9.228;2023-02-01T17:29:16;6.80;99.90
10530;DHT22;5313;48.834;9.228;2023-02-01T17:31:45;6.80;99.90
10530;DHT22;5313;48.834;9.228;2023-02-01T17:34:12;6.80;99.90
10530;DHT22;5313;48.834;9.228;2023-02-01T17:36:40;6.90;99.90
10530;DHT22;5313;48.834;9.228;2023-02-01T17:39:06;6.90;99.90
10530;DHT22;5313;48.834;9.228;2023-02-01T17:41:31;6.80;99.90
10530;DHT22;5313;48.834;9.228;2023-02-01T17:43:57;6.80;99.90
10530;DHT22;5313;48.834;9.228;2023-02-01T17:46:23;6.80;99.90
10530;DHT22;5313;48.834;9.228;2023-02-01T17:48:52;6.80;99.90
10530;DHT22;5313;48.834;9.228;2023-02-01T17:51:24;6.90;99.90
10530;DHT22;5313;48.834;9.228;2023-02-01T17:53:50;6.90;99.90
10530;DHT22;5313;48.834;9.228;2023-02-01T17:56:22;6.80;99.90
10530;DHT22;5313;48.834;9.228;2023-02-01T17:58:48;6.90;99.90
10530;DHT22;5313;48.834;9.228;2023-02-01T18:01:23;6.80;99.90
10530;DHT22;5313;48.834;9.228;2023-02-01T18:03:50;7.40;99.90
10530;DHT22;5313;48.834;9.228;2023-02-01T18:06:19;6.80;99.90
10530;DHT22;5313;48.834;9.228;2023-02-01T18:08:45;6.80;99.90
10530;DHT22;5313;48.834;9.228;2023-02-01T18:11:14;6.80;99.90
10530;DHT22;5313;48.834;9.228;2023-02-01T18:13:40;6.80;99.90
10530;DHT22;5313;48.834;9.228;2023-02-01T18:16:16;6.90;99.90
10530;DHT22;5313;48.834;9.228;2023-02-01T18:18:42;6.90;99.90
10530;DHT22;5313;48.834;9.228;2023-02-01T18:21:08;6.80;99.90
10530;DHT22;5313;48.834;9.228;2023-02-01T18:23:34;6.90;99.90
10530;DHT22;5313;48.834;9.228;2023-02-01T18:25:59;6.90;99.90
10530;DHT22;5313;48.834;9.228;2023-02-01T18:28:25;6.90;99.90